Time;durP1;ratioP1;P1;durP2;ratioP2;P2;SDS_P1;SDS_P2;PMS_P1;PMS_P2;Temp;Humidity;BMP_temperature;BMP_pressure;BME280_temperature;BME280_humidity;BME280_pressure;Samples;Min_cycle;Max_cycle;Signal;HPM_P1;HPM_P2
2023/01/13 00:02:24;;;;;;;0.60;0.50;;;19.30;44.10;;;;;;5009870;28;20443;-69
2023/01/13 00:04:49;;;;;;;0.70;0.60;;;19.30;44.10;;;;;;5012920;28;20468;-69
2023/01/13 00:07:15;;;;;;;0.70;0.50;;;19.30;44.10;;;;;;5013465;28;20228;-70
2023/01/13 00:09:40;;;;;;;1.00;0.50;;;19.30;44.10;;;;;;5010263;28;20277;-70
2023/01/13 00:12:06;;;;;;;0.77;0.63;;;19.30;44.10;;;;;;5013198;28;20690;-69
2023/01/13 00:14:35;;;;;;;0.70;0.50;;;19.30;44.10;;;;;;5007609;28;20230;-70
2023/01/13 00:17:02;;;;;;;0.70;0.60;;;19.30;44.10;;;;;;5014141;28;20227;-69
2023/01/13 00:19:28;;;;;;;0.60;0.43;;;19.30;44.10;;;;;;5006597;28;20460;-68
2023/01/13 00:21:53;;;;;;;0.60;0.60;;;19.30;44.10;;;;;;5009245;28;20483;-69
2023/01/13 00:24:19;;;;;;;0.73;0.50;;;19.30;44.10;;;;;;5007701;28;20226;-69
2023/01/13 00:26:44;;;;;;;0.70;0.60;;;19.30;44.10;;;;;;5007610;28;20219;-70
2023/01/13 00:29:10;;;;;;;1.90;0.60;;;19.30;44.10;;;;;;5004521;28;20242;-69
2023/01/13 00:31:35;;;;;;;0.80;0.50;;;19.30;44.10;;;;;;5008740;28;20249;-69
2023/01/13 00:34:01;;;;;;;0.60;0.50;;;19.30;44.00;;;;;;5011477;28;20219;-70
2023/01/13 00:36:28;;;;;;;0.60;0.50;;;19.40;44.20;;;;;;5012943;28;20223;-71
2023/01/13 00:38:54;;;;;;;0.60;0.50;;;19.40;44.20;;;;;;5006907;28;20588;-70
2023/01/13 00:41:24;;;;;;;0.60;0.60;;;19.40;44.20;;;;;;5012227;28;20456;-70
2023/01/13 00:43:49;;;;;;;1.37;0.57;;;19.40;44.10;;;;;;5003261;28;20219;-70
2023/01/13 00:46:18;;;;;;;0.60;0.50;;;19.30;44.10;;;;;;5011115;28;20459;-69
2023/01/13 00:48:44;;;;;;;0.90;0.60;;;19.30;44.10;;;;;;5008292;28;20325;-69
2023/01/13 00:51:13;;;;;;;0.57;0.50;;;19.30;44.10;;;;;;5008961;28;20443;-69
2023/01/13 00:53:42;;;;;;;0.60;0.50;;;19.30;44.00;;;;;;5012988;28;20475;-69
2023/01/13 00:56:17;;;;;;;0.70;0.50;;;19.30;44.10;;;;;;5011069;28;20472;-70
2023/01/13 00:58:44;;;;;;;0.73;0.60;;;19.30;44.10;;;;;;5007132;28;20463;-70
2023/01/13 01:01:21;;;;;;;0.70;0.50;;;19.30;44.10;;;;;;5010065;28;20450;-69
2023/01/13 01:03:47;;;;;;;0.60;0.50;;;19.30;44.00;;;;;;5005770;28;20454;-70
2023/01/13 01:06:16;;;;;;;0.80;0.60;;;19.30;44.10;;;;;;5009827;28;20467;-70
2023/01/13 01:08:43;;;;;;;0.60;0.50;;;19.30;44.10;;;;;;5010455;28;20587;-69
2023/01/13 01:11:13;;;;;;;0.60;0.50;;;19.30;44.10;;;;;;5008748;28;21061;-70
2023/01/13 01:13:40;;;;;;;0.60;0.50;;;19.30;44.10;;;;;;5009766;28;20436;-70
2023/01/13 01:16:11;;;;;;;0.60;0.50;;;19.30;44.10;;;;;;5011634;28;20462;-70
2023/01/13 01:18:40;;;;;;;0.60;0.50;;;19.30;44.10;;;;;;4985336;28;20456;-70
2023/01/13 01:21:07;;;;;;;0.70;0.47;;;19.30;44.40;;;;;;5011708;28;20508;-69
2023/01/13 01:23:34;;;;;;;0.57;0.50;;;19.30;44.10;;;;;;5008111;28;20464;-70
2023/01/13 01:26:05;;;;;;;0.70;0.60;;;19.30;44.10;;;;;;5013610;28;21332;-70
2023/01/13 01:28:32;;;;;;;0.80;0.50;;;19.30;44.10;;;;;;5012859;28;20541;-70
2023/01/13 01:30:58;;;;;;;0.70;0.60;;;19.30;44.10;;;;;;5014919;28;20537;-69
2023/01/13 01:33:27;;;;;;;0.70;0.50;;;19.30;44.10;;;;;;5011785;28;20455;-70
2023/01/13 01:35:53;;;;;;;2.00;0.50;;;19.30;44.80;;;;;;5014606;28;20461;-70
2023/01/13 01:38:21;;;;;;;0.60;0.43;;;19.30;44.10;;;;;;5011838;28;20438;-69
2023/01/13 01:40:46;;;;;;;0.60;0.50;;;19.30;44.00;;;;;;5015050;28;20463;-69
2023/01/13 01:45:59;;;;;;;0.60;0.50;;;19.30;44.10;;;;;;5010855;28;20638;-69
2023/01/13 01:48:27;;;;;;;0.70;0.60;;;19.30;44.10;;;;;;5011110;28;20459;-70
2023/01/13 01:50:53;;;;;;;0.70;0.60;;;19.30;44.10;;;;;;5013267;28;20237;-69
2023/01/13 01:53:21;;;;;;;0.60;0.50;;;19.30;44.10;;;;;;5003430;28;20465;-70
2023/01/13 01:55:47;;;;;;;0.60;0.50;;;19.30;44.10;;;;;;5006955;28;20426;-70
2023/01/13 01:58:25;;;;;;;0.60;0.50;;;19.30;44.10;;;;;;5008223;28;21051;-70
2023/01/13 02:00:50;;;;;;;0.60;0.50;;;19.30;44.10;;;;;;5006851;28;20245;-69
2023/01/13 02:03:17;;;;;;;0.90;0.60;;;19.30;44.10;;;;;;5018535;28;20439;-69
2023/01/13 02:05:42;;;;;;;0.57;0.47;;;19.30;44.10;;;;;;5013020;28;20716;-69
2023/01/13 02:08:11;;;;;;;0.63;0.50;;;19.30;44.00;;;;;;5011080;28;20476;-70
2023/01/13 02:10:37;;;;;;;0.60;0.47;;;19.30;44.10;;;;;;5009504;28;20226;-70
2023/01/13 02:13:07;;;;;;;0.80;0.50;;;19.30;44.10;;;;;;5011274;28;20475;-70
2023/01/13 02:15:45;;;;;;;0.70;0.50;;;19.30;44.10;;;;;;5016381;28;20434;-69
2023/01/13 02:18:40;;;;;;;0.60;0.50;;;19.30;44.00;;;;;;5013177;28;20475;-69
2023/01/13 02:21:24;;;;;;;0.87;0.83;;;19.30;44.10;;;;;;5012371;28;20519;-69
2023/01/13 02:27:31;;;;;;;0.60;0.50;;;19.30;44.00;;;;;;5014706;28;20984;-69
2023/01/13 02:33:24;;;;;;;0.60;0.43;;;19.30;44.10;;;;;;5013100;28;20475;-70
2023/01/13 02:35:58;;;;;;;0.70;0.60;;;19.30;44.10;;;;;;5014591;28;20480;-70
2023/01/13 02:38:30;;;;;;;0.63;0.50;;;19.30;44.10;;;;;;5013186;28;20510;-69
2023/01/13 02:44:05;;;;;;;0.90;0.50;;;19.30;44.10;;;;;;4996635;28;20455;-69
2023/01/13 02:44:05;;;;;;;0.60;0.60;;;19.30;44.10;;;;;;5011505;28;20443;-69
2023/01/13 02:46:48;;;;;;;0.67;0.50;;;19.30;44.10;;;;;;5015139;28;20487;-70
2023/01/13 02:49:32;;;;;;;0.60;0.50;;;19.20;44.00;;;;;;5015568;28;20450;-69
2023/01/13 02:52:04;;;;;;;0.80;0.50;;;19.30;44.00;;;;;;5015232;28;20509;-69
2023/01/13 02:54:34;;;;;;;0.80;0.50;;;19.30;44.00;;;;;;5014472;28;20461;-70
2023/01/13 02:57:01;;;;;;;0.60;0.50;;;19.30;44.10;;;;;;5013709;28;20484;-69
2023/01/13 02:59:28;;;;;;;0.80;0.53;;;19.30;44.10;;;;;;5012667;28;20446;-69
2023/01/13 03:01:56;;;;;;;0.60;0.50;;;19.30;44.10;;;;;;4995547;28;20961;-70
2023/01/13 03:04:43;;;;;;;0.60;0.50;;;19.30;44.10;;;;;;5009207;28;20469;-69
2023/01/13 03:07:33;;;;;;;0.70;0.57;;;19.30;44.10;;;;;;5009944;28;20472;-69
2023/01/13 03:10:21;;;;;;;0.60;0.47;;;19.30;44.10;;;;;;5012873;28;20465;-69
2023/01/13 03:13:11;;;;;;;0.80;0.50;;;19.20;44.00;;;;;;4985484;28;20426;-69
2023/01/13 03:15:51;;;;;;;0.60;0.40;;;19.20;44.00;;;;;;5014129;28;20465;-70
2023/01/13 03:18:31;;;;;;;0.90;0.60;;;19.30;44.10;;;;;;5012987;28;20545;-69
2023/01/13 03:21:08;;;;;;;0.60;0.50;;;19.20;44.00;;;;;;5013842;28;20454;-69
2023/01/13 03:23:36;;;;;;;0.70;0.50;;;19.20;44.00;;;;;;5013548;28;20452;-70
2023/01/13 03:26:22;;;;;;;0.70;0.50;;;19.30;44.10;;;;;;5012979;28;21395;-69
2023/01/13 03:29:00;;;;;;;1.33;0.50;;;19.30;44.10;;;;;;5013673;28;20431;-69
2023/01/13 03:31:31;;;;;;;0.70;0.50;;;19.30;44.10;;;;;;5012120;28;20531;-69
2023/01/13 03:34:33;;;;;;;1.00;0.70;;;19.20;44.10;;;;;;5015835;28;20799;-69
2023/01/13 03:37:03;;;;;;;1.07;0.60;;;19.30;44.10;;;;;;4950922;28;20450;-69
2023/01/13 03:39:34;;;;;;;0.70;0.60;;;19.30;44.10;;;;;;5012139;28;20432;-69
2023/01/13 03:42:15;;;;;;;1.00;0.50;;;19.30;44.00;;;;;;5007373;28;20471;-71
2023/01/13 03:44:47;;;;;;;0.77;0.50;;;19.30;44.10;;;;;;5010368;28;20424;-69
2023/01/13 03:47:40;;;;;;;0.70;0.50;;;19.30;44.00;;;;;;5013508;28;20490;-69
2023/01/13 03:50:32;;;;;;;0.70;0.50;;;19.30;44.00;;;;;;5012962;28;20480;-69
2023/01/13 03:53:06;;;;;;;0.70;0.50;;;19.30;44.10;;;;;;4999117;28;20448;-70
2023/01/13 03:55:41;;;;;;;0.83;0.50;;;19.30;44.10;;;;;;5010437;28;20476;-69
2023/01/13 03:58:23;;;;;;;0.90;0.60;;;19.30;44.00;;;;;;5014851;28;20459;-69
2023/01/13 04:00:58;;;;;;;1.43;0.60;;;19.30;44.00;;;;;;5009125;28;23857;-70
2023/01/13 04:03:51;;;;;;;0.70;0.50;;;19.30;44.10;;;;;;5013111;28;20520;-69
2023/01/13 04:06:31;;;;;;;0.70;0.53;;;19.30;44.10;;;;;;5013448;28;20435;-70
2023/01/13 04:09:23;;;;;;;1.00;0.50;;;19.30;44.10;;;;;;5009740;28;20434;-69
2023/01/13 04:11:53;;;;;;;0.60;0.50;;;19.30;44.10;;;;;;4983683;28;20453;-69
2023/01/13 04:14:20;;;;;;;0.60;0.50;;;19.30;44.10;;;;;;5012736;28;20457;-70
2023/01/13 04:16:48;;;;;;;0.73;0.67;;;19.30;44.10;;;;;;5012092;28;20448;-68
2023/01/13 04:19:13;;;;;;;1.00;0.50;;;19.30;44.10;;;;;;5013678;28;20471;-70
2023/01/13 04:21:39;;;;;;;1.40;0.60;;;19.30;44.10;;;;;;5012444;28;20494;-70
2023/01/13 04:24:04;;;;;;;0.70;0.60;;;19.30;44.10;;;;;;5012297;28;20230;-69
2023/01/13 04:26:30;;;;;;;0.80;0.60;;;19.30;44.10;;;;;;5015217;28;20664;-69
2023/01/13 04:28:55;;;;;;;0.60;0.50;;;19.30;44.10;;;;;;5014410;28;20227;-70
2023/01/13 04:31:21;;;;;;;1.27;0.60;;;19.30;44.10;;;;;;5015725;28;20292;-71
2023/01/13 04:33:47;;;;;;;0.60;0.50;;;19.30;44.10;;;;;;5014334;28;20582;-69
2023/01/13 04:36:12;;;;;;;0.60;0.47;;;19.30;44.10;;;;;;5012435;28;20221;-69
2023/01/13 04:38:38;;;;;;;0.80;0.50;;;19.30;44.10;;;;;;5015095;28;20595;-69
2023/01/13 04:41:03;;;;;;;0.90;0.50;;;19.30;44.10;;;;;;5013831;28;20237;-69
2023/01/13 04:43:29;;;;;;;0.70;0.50;;;19.30;44.10;;;;;;5012245;28;20222;-71
2023/01/13 04:45:54;;;;;;;0.80;0.50;;;19.30;44.10;;;;;;5010963;28;20231;-71
2023/01/13 04:48:20;;;;;;;0.80;0.60;;;19.30;44.10;;;;;;5010833;28;20246;-70
2023/01/13 04:50:46;;;;;;;0.70;0.50;;;19.30;44.10;;;;;;5014073;28;20233;-69
2023/01/13 04:53:11;;;;;;;0.60;0.60;;;19.30;44.10;;;;;;5014736;28;20211;-69
2023/01/13 04:55:37;;;;;;;0.90;0.60;;;19.30;44.10;;;;;;5010998;28;20218;-69
2023/01/13 04:58:07;;;;;;;0.80;0.60;;;19.30;44.10;;;;;;5014965;28;20211;-69
2023/01/13 05:00:33;;;;;;;1.63;0.80;;;19.30;44.10;;;;;;5011620;28;20226;-70
2023/01/13 05:02:58;;;;;;;0.97;0.50;;;19.30;44.00;;;;;;5012567;28;20455;-70
2023/01/13 05:05:25;;;;;;;0.80;0.60;;;19.30;44.00;;;;;;5015493;28;20242;-70
2023/01/13 05:07:50;;;;;;;0.60;0.50;;;19.40;44.00;;;;;;5019724;28;20830;-70
2023/01/13 05:10:16;;;;;;;0.70;0.57;;;19.40;44.00;;;;;;5013095;28;20443;-71
2023/01/13 05:18:11;;;;;;;2.90;0.60;;;19.40;44.00;;;;;;5014932;28;20574;-70
2023/01/13 05:20:36;;;;;;;0.60;0.43;;;19.40;43.80;;;;;;5016212;28;20467;-70
2023/01/13 05:25:47;;;;;;;0.60;0.50;;;19.40;43.70;;;;;;5016402;28;20262;-70
2023/01/13 05:28:12;;;;;;;1.03;0.70;;;19.50;43.70;;;;;;4998891;28;20456;-70
2023/01/13 05:30:43;;;;;;;1.03;0.90;;;19.50;43.70;;;;;;5014209;28;20459;-69
2023/01/13 05:33:10;;;;;;;0.80;0.60;;;19.50;43.70;;;;;;5010541;28;20249;-69
2023/01/13 05:35:40;;;;;;;0.60;0.50;;;19.50;43.70;;;;;;5006698;28;20460;-69
2023/01/13 05:38:05;;;;;;;0.90;0.70;;;19.50;43.60;;;;;;5013909;28;20471;-71
2023/01/13 05:43:23;;;;;;;0.60;0.60;;;19.50;43.70;;;;;;5012775;28;20281;-70
2023/01/13 05:46:06;;;;;;;0.60;0.50;;;19.50;43.70;;;;;;5008761;28;20456;-70
2023/01/13 05:48:40;;;;;;;1.10;0.60;;;19.50;43.80;;;;;;5011344;28;20533;-71
2023/01/13 05:51:08;;;;;;;0.60;0.57;;;19.50;43.70;;;;;;5009359;28;20570;-72
2023/01/13 05:53:34;;;;;;;1.00;0.60;;;19.50;43.80;;;;;;5013707;28;20441;-72
2023/01/13 05:56:03;;;;;;;0.70;0.50;;;19.50;43.80;;;;;;5008607;28;20457;-72
2023/01/13 05:58:29;;;;;;;0.77;0.50;;;19.50;43.80;;;;;;5010291;28;20676;-72
2023/01/13 06:01:06;;;;;;;0.70;0.60;;;19.50;43.90;;;;;;5010998;28;20434;-72
2023/01/13 06:03:32;;;;;;;0.90;0.70;;;19.50;43.90;;;;;;5012569;28;21029;-72
2023/01/13 06:06:00;;;;;;;0.80;0.60;;;19.50;43.90;;;;;;5013539;28;20451;-72
2023/01/13 06:08:26;;;;;;;0.70;0.50;;;19.50;43.90;;;;;;5005628;28;20381;-72
2023/01/13 06:10:51;;;;;;;0.73;0.63;;;19.50;44.60;;;;;;5012933;28;20915;-71
2023/01/13 06:13:17;;;;;;;1.40;0.60;;;19.50;43.80;;;;;;5015455;28;20219;-72
2023/01/13 06:15:42;;;;;;;0.87;0.60;;;19.50;43.80;;;;;;5009393;28;20301;-73
2023/01/13 06:18:08;;;;;;;0.70;0.60;;;19.50;43.90;;;;;;5009678;28;20230;-72
2023/01/13 06:20:33;;;;;;;0.73;0.67;;;19.50;43.80;;;;;;5002668;28;20362;-71
2023/01/13 06:22:59;;;;;;;0.73;0.50;;;19.50;43.90;;;;;;5016278;28;20317;-71
2023/01/13 06:25:34;;;;;;;0.97;0.50;;;19.50;43.90;;;;;;5015155;28;20309;-72
2023/01/13 06:28:00;;;;;;;1.13;0.60;;;19.50;43.80;;;;;;5010974;28;21235;-69
2023/01/13 06:30:33;;;;;;;1.20;0.60;;;19.50;43.80;;;;;;5013303;28;20485;-69
2023/01/13 06:33:03;;;;;;;0.70;0.50;;;19.50;43.80;;;;;;5013788;28;20231;-70
2023/01/13 06:35:32;;;;;;;0.70;0.70;;;19.50;43.80;;;;;;5013352;28;20429;-69
2023/01/13 06:37:59;;;;;;;45.50;2.47;;;19.50;43.80;;;;;;5011613;28;20457;-70
2023/01/13 06:40:25;;;;;;;0.80;0.60;;;19.50;43.60;;;;;;5013370;28;20921;-71
2023/01/13 06:45:37;;;;;;;2.37;0.83;;;19.50;43.40;;;;;;5013336;28;20296;-68
2023/01/13 06:48:03;;;;;;;0.70;0.50;;;19.50;43.40;;;;;;5014087;28;20513;-69
2023/01/13 06:50:29;;;;;;;0.70;0.50;;;19.50;43.40;;;;;;5012036;28;20223;-69
2023/01/13 06:52:54;;;;;;;0.60;0.47;;;19.50;43.50;;;;;;5015606;28;20226;-69
2023/01/13 06:55:20;;;;;;;0.70;0.50;;;19.50;43.50;;;;;;5012999;28;20929;-69
2023/01/13 06:57:54;;;;;;;0.83;0.70;;;19.50;43.60;;;;;;5011683;28;20227;-70
2023/01/13 07:00:22;;;;;;;1.07;0.70;;;19.50;43.60;;;;;;5013143;28;20222;-70
2023/01/13 07:02:47;;;;;;;1.63;0.70;;;19.50;43.70;;;;;;5010485;28;20585;-69
2023/01/13 07:05:14;;;;;;;0.77;0.60;;;19.50;43.70;;;;;;5013357;28;21030;-69
2023/01/13 07:07:40;;;;;;;0.80;0.60;;;19.50;43.70;;;;;;5014345;28;20348;-70
2023/01/13 07:10:11;;;;;;;0.80;0.50;;;19.50;43.70;;;;;;5012419;28;20449;-69
2023/01/13 07:15:24;;;;;;;2.10;0.60;;;19.50;43.80;;;;;;5012850;28;20999;-71
2023/01/13 07:17:49;;;;;;;2.53;0.60;;;19.50;43.80;;;;;;5011802;28;20429;-69
2023/01/13 07:20:15;;;;;;;0.80;0.70;;;19.50;43.80;;;;;;5011850;28;20438;-70
2023/01/13 07:22:41;;;;;;;0.80;0.50;;;19.50;43.80;;;;;;5014385;28;20239;-69
2023/01/13 07:25:08;;;;;;;0.97;0.77;;;19.50;43.90;;;;;;5010883;28;20879;-71
2023/01/13 07:27:34;;;;;;;0.70;0.50;;;19.50;43.90;;;;;;5012686;28;20453;-70
2023/01/13 07:29:59;;;;;;;0.80;0.60;;;19.50;43.80;;;;;;5015364;28;20466;-69
2023/01/13 07:32:25;;;;;;;0.67;0.53;;;19.50;43.90;;;;;;5012028;28;20223;-71
2023/01/13 07:34:50;;;;;;;0.70;0.50;;;19.50;43.90;;;;;;5011161;28;20226;-69
2023/01/13 07:37:16;;;;;;;0.93;0.60;;;19.50;43.90;;;;;;5015069;28;20215;-69
2023/01/13 07:39:41;;;;;;;0.90;0.70;;;19.50;43.90;;;;;;5013075;28;20219;-70
2023/01/13 07:44:52;;;;;;;0.70;0.50;;;19.50;43.90;;;;;;5013543;28;20664;-69
2023/01/13 07:47:21;;;;;;;1.10;0.67;;;19.50;43.90;;;;;;5011030;28;20713;-69
2023/01/13 07:49:47;;;;;;;0.70;0.53;;;19.50;43.90;;;;;;5010029;28;20232;-70
2023/01/13 07:52:13;;;;;;;0.80;0.70;;;19.50;43.90;;;;;;5012460;28;20446;-69
2023/01/13 07:54:38;;;;;;;0.60;0.50;;;19.50;43.90;;;;;;5011039;28;20238;-69
2023/01/13 07:57:04;;;;;;;2.30;0.60;;;19.50;43.80;;;;;;5000677;28;20254;-69
2023/01/13 07:59:29;;;;;;;1.00;0.70;;;19.50;44.00;;;;;;5013969;28;20219;-70
2023/01/13 08:01:55;;;;;;;0.80;0.60;;;19.50;44.00;;;;;;5012376;28;20573;-72
2023/01/13 08:04:21;;;;;;;1.20;0.77;;;19.50;43.90;;;;;;5012814;28;20305;-71
2023/01/13 08:06:47;;;;;;;1.77;0.90;;;19.50;43.90;;;;;;5012994;28;20567;-70
2023/01/13 08:09:13;;;;;;;0.80;0.60;;;19.50;43.80;;;;;;5012391;28;20403;-70
2023/01/13 08:11:38;;;;;;;1.20;0.70;;;19.40;43.70;;;;;;5013581;28;20441;-68
2023/01/13 08:14:04;;;;;;;0.70;0.60;;;19.40;43.80;;;;;;5011793;28;20222;-68
2023/01/13 08:16:32;;;;;;;1.07;0.60;;;19.50;43.90;;;;;;5011317;28;20226;-71
2023/01/13 08:18:58;;;;;;;0.90;0.60;;;19.40;43.80;;;;;;5012044;28;20226;-69
2023/01/13 08:21:24;;;;;;;1.47;0.80;;;19.40;43.80;;;;;;5013113;28;20443;-69
2023/01/13 08:23:49;;;;;;;0.87;0.60;;;19.40;43.80;;;;;;5010693;28;20234;-70
2023/01/13 08:26:16;;;;;;;1.00;0.80;;;19.50;43.90;;;;;;5013901;28;20390;-69
2023/01/13 08:28:43;;;;;;;0.90;0.60;;;19.40;43.70;;;;;;5013131;28;20318;-71
2023/01/13 08:31:14;;;;;;;0.93;0.70;;;19.40;43.70;;;;;;5011724;28;20472;-71
2023/01/13 08:33:40;;;;;;;0.80;0.60;;;19.40;43.70;;;;;;5011329;28;20511;-71
2023/01/13 08:36:09;;;;;;;0.87;0.60;;;19.40;43.80;;;;;;5011111;28;20636;-72
2023/01/13 08:38:35;;;;;;;0.90;0.60;;;19.50;43.80;;;;;;5014196;28;21037;-71
2023/01/13 08:41:10;;;;;;;0.70;0.60;;;19.50;43.80;;;;;;5015386;28;20468;-71
2023/01/13 08:43:36;;;;;;;0.83;0.63;;;19.40;43.80;;;;;;5014792;28;20451;-72
2023/01/13 08:46:05;;;;;;;0.60;0.50;;;19.50;43.90;;;;;;5013115;28;20981;-71
2023/01/13 08:48:30;;;;;;;1.10;0.70;;;19.50;43.80;;;;;;5019217;28;20242;-71
2023/01/13 08:51:04;;;;;;;0.90;0.80;;;19.50;43.90;;;;;;5019455;28;20452;-71
2023/01/13 08:53:30;;;;;;;1.67;1.17;;;19.50;43.80;;;;;;5001131;28;20230;-71
2023/01/13 08:55:56;;;;;;;0.93;0.60;;;19.50;43.90;;;;;;5015180;28;20482;-71
2023/01/13 08:58:21;;;;;;;0.80;0.70;;;19.50;43.90;;;;;;5017694;28;20472;-71
2023/01/13 09:00:47;;;;;;;1.07;0.63;;;19.50;43.90;;;;;;5013691;28;20325;-71
2023/01/13 09:03:13;;;;;;;1.53;0.70;;;19.40;43.80;;;;;;5017897;28;20324;-71
2023/01/13 09:05:38;;;;;;;0.80;0.60;;;19.50;43.80;;;;;;5014902;28;20726;-71
2023/01/13 09:08:04;;;;;;;1.33;0.90;;;19.40;43.70;;;;;;5019327;28;21676;-71
2023/01/13 09:10:29;;;;;;;0.80;0.60;;;19.50;43.90;;;;;;5016317;28;20215;-71
2023/01/13 09:13:10;;;;;;;1.00;0.67;;;19.50;43.90;;;;;;5015053;28;20223;-72
2023/01/13 09:15:36;;;;;;;1.43;0.70;;;19.50;43.80;;;;;;5015419;28;20273;-71
2023/01/13 09:18:01;;;;;;;1.13;0.60;;;19.50;43.90;;;;;;5013591;28;21431;-72
2023/01/13 09:20:27;;;;;;;3.20;0.70;;;19.50;43.80;;;;;;5017955;28;20361;-71
2023/01/13 09:22:52;;;;;;;0.90;0.70;;;19.50;43.90;;;;;;5014630;28;20234;-71
2023/01/13 09:25:18;;;;;;;0.80;0.70;;;19.50;43.90;;;;;;5013950;28;20692;-71
2023/01/13 09:27:43;;;;;;;1.43;0.70;;;19.40;43.70;;;;;;5014784;28;20229;-71
2023/01/13 09:30:09;;;;;;;0.97;0.83;;;19.40;43.80;;;;;;5018035;28;20227;-71
2023/01/13 09:32:37;;;;;;;1.10;0.70;;;19.50;43.90;;;;;;5015817;28;20224;-71
2023/01/13 09:35:03;;;;;;;0.70;0.60;;;19.50;43.90;;;;;;5014644;28;20979;-71
2023/01/13 09:37:38;;;;;;;1.10;0.70;;;19.40;43.80;;;;;;5014161;28;20438;-71
2023/01/13 09:40:16;;;;;;;1.10;0.87;;;19.40;43.80;;;;;;5014398;28;20563;-71
2023/01/13 09:45:55;;;;;;;1.27;0.80;;;19.40;43.70;;;;;;5014657;28;21002;-71
2023/01/13 09:48:24;;;;;;;1.37;0.60;;;19.40;43.70;;;;;;5013816;28;20459;-71
2023/01/13 09:51:08;;;;;;;1.33;0.70;;;19.40;43.70;;;;;;5010578;28;21024;-71
2023/01/13 09:53:42;;;;;;;0.90;0.60;;;19.40;43.70;;;;;;5014331;28;21028;-71
2023/01/13 09:56:09;;;;;;;0.80;0.60;;;19.50;43.80;;;;;;5013765;28;20453;-71
2023/01/13 09:58:35;;;;;;;0.70;0.60;;;19.40;43.70;;;;;;5016236;28;20494;-71
2023/01/13 10:01:19;;;;;;;1.83;0.70;;;19.40;43.80;;;;;;5016475;28;20878;-71
2023/01/13 10:03:45;;;;;;;1.00;0.50;;;19.40;43.70;;;;;;5013344;28;20222;-72
2023/01/13 10:06:14;;;;;;;2.07;0.70;;;19.50;43.80;;;;;;5015908;28;20456;-71
2023/01/13 10:08:42;;;;;;;1.43;0.60;;;19.40;43.60;;;;;;5012712;28;20221;-71
2023/01/13 10:14:18;;;;;;;0.80;0.70;;;19.40;43.60;;;;;;5016678;28;20483;-71
2023/01/13 10:16:51;;;;;;;1.30;0.80;;;19.40;43.60;;;;;;5015996;28;20558;-72
2023/01/13 10:19:36;;;;;;;0.90;0.67;;;19.40;43.70;;;;;;5015724;28;21021;-71
2023/01/13 10:22:28;;;;;;;1.17;0.80;;;19.40;43.70;;;;;;5014172;28;20468;-71
2023/01/13 10:25:19;;;;;;;1.30;0.70;;;19.40;43.60;;;;;;5012791;28;20431;-71
2023/01/13 10:27:48;;;;;;;0.90;0.80;;;19.40;43.60;;;;;;5015346;28;20423;-72
2023/01/13 10:30:30;;;;;;;1.10;0.70;;;19.40;43.60;;;;;;5014209;28;20474;-71
2023/01/13 10:33:05;;;;;;;1.07;0.60;;;19.40;43.60;;;;;;5014489;28;20444;-71
2023/01/13 10:35:54;;;;;;;0.90;0.60;;;19.40;43.70;;;;;;5014313;28;21091;-71
2023/01/13 10:38:45;;;;;;;0.70;0.60;;;19.40;43.60;;;;;;5015117;28;20452;-71
2023/01/13 10:41:19;;;;;;;1.10;0.80;;;19.40;43.60;;;;;;5014928;28;20521;-71
2023/01/13 10:43:56;;;;;;;1.57;1.00;;;19.40;43.60;;;;;;5013452;28;20461;-71
2023/01/13 10:46:21;;;;;;;1.20;0.90;;;19.40;43.60;;;;;;5012191;28;20407;-71
2023/01/13 10:48:55;;;;;;;0.90;0.60;;;19.40;43.60;;;;;;5012728;28;20430;-71
2023/01/13 10:51:39;;;;;;;0.90;0.63;;;19.40;43.60;;;;;;5015442;28;20218;-71
2023/01/13 10:54:11;;;;;;;1.30;0.73;;;19.40;43.60;;;;;;5011685;28;20463;-71
2023/01/13 10:56:38;;;;;;;1.00;0.70;;;19.40;43.60;;;;;;5010522;28;20934;-71
2023/01/13 10:59:21;;;;;;;1.33;0.70;;;19.40;43.60;;;;;;5016446;28;20519;-71
2023/01/13 11:02:02;;;;;;;1.00;0.70;;;19.40;43.60;;;;;;5013238;28;21649;-72
2023/01/13 11:04:39;;;;;;;0.80;0.50;;;19.40;43.60;;;;;;5013434;28;20867;-71
2023/01/13 11:07:19;;;;;;;1.00;0.90;;;19.40;43.60;;;;;;5013079;28;20459;-71
2023/01/13 11:09:45;;;;;;;1.17;0.60;;;19.40;43.60;;;;;;5012881;28;20452;-71
2023/01/13 11:12:30;;;;;;;0.93;0.67;;;19.40;43.60;;;;;;5014613;28;20964;-72
2023/01/13 11:14:59;;;;;;;1.07;0.80;;;19.40;43.50;;;;;;5012272;28;20219;-72
2023/01/13 11:17:46;;;;;;;2.10;0.80;;;19.40;43.60;;;;;;5017457;28;20532;-72
2023/01/13 11:20:20;;;;;;;0.70;0.60;;;19.40;43.50;;;;;;5013292;28;20469;-71
2023/01/13 11:22:54;;;;;;;0.90;0.70;;;19.40;43.50;;;;;;5012249;28;20450;-71
2023/01/13 11:25:40;;;;;;;2.00;0.80;;;19.40;43.50;;;;;;5011249;28;20452;-71
2023/01/13 11:28:17;;;;;;;1.00;0.80;;;19.40;43.50;;;;;;5012276;28;21041;-70
2023/01/13 11:30:55;;;;;;;0.90;0.77;;;19.40;43.50;;;;;;5012804;28;20431;-71
2023/01/13 11:33:29;;;;;;;1.07;0.97;;;19.40;43.50;;;;;;5010955;28;20474;-71
2023/01/13 11:36:12;;;;;;;0.80;0.70;;;19.40;43.40;;;;;;5016704;28;20419;-70
2023/01/13 11:38:50;;;;;;;1.03;0.70;;;19.40;43.50;;;;;;5014214;28;20431;-71
2023/01/13 11:41:31;;;;;;;1.07;0.77;;;19.40;43.50;;;;;;5012375;28;23281;-71
2023/01/13 11:44:14;;;;;;;0.80;0.63;;;19.40;43.50;;;;;;5011275;28;20439;-72
2023/01/13 11:46:40;;;;;;;1.10;0.70;;;19.40;43.50;;;;;;5011046;28;20444;-71
2023/01/13 11:49:07;;;;;;;0.90;0.80;;;19.40;43.50;;;;;;5007658;28;20455;-73
2023/01/13 11:52:05;;;;;;;1.20;0.60;;;19.40;43.50;;;;;;5013594;28;20222;-73
2023/01/13 11:54:40;;;;;;;1.23;0.70;;;19.40;43.50;;;;;;5013168;28;20989;-71
2023/01/13 11:57:27;;;;;;;1.10;1.00;;;19.40;43.40;;;;;;5014481;28;20980;-71
2023/01/13 12:00:30;;;;;;;1.00;0.67;;;19.40;43.40;;;;;;5011042;28;20827;-72
2023/01/13 12:03:23;;;;;;;0.90;0.60;;;19.40;43.40;;;;;;5011120;28;20453;-72
2023/01/13 12:06:16;;;;;;;1.97;0.80;;;19.40;43.40;;;;;;5008422;28;20430;-73
2023/01/13 12:09:10;;;;;;;1.10;0.70;;;19.40;43.40;;;;;;5011974;28;20509;-73
2023/01/13 12:12:18;;;;;;;0.87;0.70;;;19.40;43.40;;;;;;5010117;28;20717;-73
2023/01/13 12:15:05;;;;;;;1.17;0.60;;;19.40;43.40;;;;;;5010504;28;20448;-73
2023/01/13 12:17:56;;;;;;;1.17;0.80;;;19.40;43.50;;;;;;5009901;28;20468;-73
2023/01/13 12:20:49;;;;;;;1.20;0.80;;;19.40;43.50;;;;;;5015011;28;20432;-73
2023/01/13 12:23:39;;;;;;;0.90;0.70;;;19.40;43.50;;;;;;5010744;28;20900;-73
2023/01/13 12:26:15;;;;;;;0.70;0.70;;;19.40;43.40;;;;;;5010759;28;20952;-73
2023/01/13 12:28:50;;;;;;;1.40;0.80;;;19.40;43.40;;;;;;4998503;28;20402;-72
2023/01/13 12:31:17;;;;;;;1.37;0.73;;;19.40;43.40;;;;;;5010359;28;20441;-72
2023/01/13 12:34:20;;;;;;;1.00;0.70;;;19.40;43.40;;;;;;5013736;28;20931;-72
2023/01/13 12:37:16;;;;;;;1.47;0.80;;;19.40;43.40;;;;;;4991125;28;20455;-73
2023/01/13 12:40:11;;;;;;;1.17;0.77;;;19.40;43.50;;;;;;5002922;28;20442;-73
2023/01/13 12:45:35;;;;;;;0.90;0.70;;;19.40;43.40;;;;;;5010055;28;20430;-73
2023/01/13 12:48:00;;;;;;;1.53;1.00;;;19.40;43.40;;;;;;5012458;28;20456;-73
2023/01/13 12:50:26;;;;;;;0.87;0.80;;;19.40;43.50;;;;;;5010094;28;20226;-73
2023/01/13 12:52:55;;;;;;;1.47;0.80;;;19.40;43.40;;;;;;5010511;28;20250;-73
2023/01/13 12:55:31;;;;;;;1.63;0.90;;;19.40;43.40;;;;;;5010397;28;20219;-73
2023/01/13 12:58:04;;;;;;;2.33;0.83;;;19.40;43.40;;;;;;5011807;28;20471;-73
2023/01/13 13:00:37;;;;;;;1.30;0.80;;;19.40;43.30;;;;;;5013758;28;20539;-73
2023/01/13 13:03:11;;;;;;;0.80;0.70;;;19.40;43.30;;;;;;5012554;28;20486;-73
2023/01/13 13:05:54;;;;;;;1.50;0.90;;;19.40;43.30;;;;;;5014385;28;20963;-73
2023/01/13 13:08:41;;;;;;;1.33;0.80;;;19.40;43.30;;;;;;5012841;28;20414;-73
2023/01/13 13:14:21;;;;;;;1.20;0.83;;;19.40;43.30;;;;;;5009720;28;20522;-73
2023/01/13 13:16:49;;;;;;;1.43;0.80;;;19.40;43.30;;;;;;5010404;28;20445;-73
2023/01/13 13:19:18;;;;;;;1.10;0.70;;;19.50;43.40;;;;;;5012056;28;20438;-72
2023/01/13 13:22:12;;;;;;;1.30;0.70;;;19.50;43.40;;;;;;5014658;28;20435;-73
2023/01/13 13:25:02;;;;;;;0.97;0.80;;;19.50;43.30;;;;;;5014639;28;20933;-73
2023/01/13 13:27:40;;;;;;;0.93;0.70;;;19.50;43.30;;;;;;4998306;28;20821;-73
2023/01/13 13:30:24;;;;;;;1.60;0.90;;;19.50;43.40;;;;;;4997496;28;20855;-73
2023/01/13 13:33:05;;;;;;;0.80;0.67;;;19.50;43.40;;;;;;5018835;28;20452;-73
2023/01/13 13:35:50;;;;;;;1.00;0.83;;;19.50;43.30;;;;;;4992462;28;20577;-73
2023/01/13 13:47:13;;;;;;;1.10;0.90;;;19.50;43.30;;;;;;5014757;28;20464;-71
2023/01/13 13:49:40;;;;;;;1.10;1.00;;;19.50;43.30;;;;;;5015540;28;20437;-73
2023/01/13 13:52:21;;;;;;;0.90;0.80;;;19.50;43.30;;;;;;5019238;28;20772;-73
2023/01/13 13:54:50;;;;;;;1.27;1.10;;;19.50;43.30;;;;;;5015701;28;21102;-73
2023/01/13 13:57:18;;;;;;;1.00;0.80;;;19.50;43.30;;;;;;5016326;28;20476;-73
2023/01/13 13:59:45;;;;;;;1.00;0.70;;;19.50;43.30;;;;;;5013269;28;20441;-73
2023/01/13 14:02:19;;;;;;;1.83;0.80;;;19.50;43.20;;;;;;5016112;28;20447;-73
2023/01/13 14:04:44;;;;;;;1.17;0.97;;;19.50;43.20;;;;;;5013879;28;20422;-73